createdAt,value
2018-06-15T00:00:38.101Z,98155.23
2018-06-15T00:03:07.297Z,98159.53
2018-06-15T00:05:36.501Z,98160.43
2018-06-15T00:08:05.713Z,98161.34
2018-06-15T00:10:34.894Z,98165.63
2018-06-15T00:13:04.093Z,98166.10
2018-06-15T00:15:33.283Z,98170.72
2018-06-15T00:18:02.469Z,98173.17
2018-06-15T00:20:31.643Z,98170.71
2018-06-15T00:23:00.819Z,98175.02
2018-06-15T00:25:30.000Z,98176.78
2018-06-15T00:27:58.945Z,98173.94
2018-06-15T00:30:28.150Z,98175.75
2018-06-15T00:32:57.325Z,98176.14
2018-06-15T00:35:26.516Z,98179.87
2018-06-15T00:37:55.705Z,98176.93
2018-06-15T00:40:24.897Z,98191.08
2018-06-15T00:42:54.098Z,98184.76
2018-06-15T00:45:23.273Z,98190.28
2018-06-15T00:47:52.456Z,98194.02
2018-06-15T00:50:21.668Z,98185.72
2018-06-15T00:52:50.617Z,98178.78
2018-06-15T00:55:19.853Z,98170.27
2018-06-15T00:57:49.697Z,98176.00
2018-06-15T01:00:18.949Z,98177.77
2018-06-15T01:02:48.217Z,98172.72
2018-06-15T01:05:17.450Z,98173.55
2018-06-15T01:07:46.665Z,98173.43
2018-06-15T01:10:15.648Z,98167.47
2018-06-15T01:12:44.866Z,98170.41
2018-06-15T01:15:14.093Z,98169.22
2018-06-15T01:17:43.315Z,98163.09
2018-06-15T01:20:12.585Z,98165.55
2018-06-15T01:22:41.813Z,98171.52
2018-06-15T01:25:11.042Z,98169.36
2018-06-15T01:27:40.271Z,98167.34
2018-06-15T01:30:09.495Z,98169.05
2018-06-15T01:32:38.730Z,98176.20
2018-06-15T01:35:07.943Z,98181.45
2018-06-15T01:37:37.164Z,98178.55
2018-06-15T01:40:06.395Z,98177.66
2018-06-15T01:42:35.618Z,98174.58
2018-06-15T01:45:04.831Z,98170.86
2018-06-15T01:47:33.831Z,98172.63
2018-06-15T01:50:03.036Z,98170.75
2018-06-15T01:52:32.269Z,98169.39
2018-06-15T01:55:01.498Z,98165.13
2018-06-15T01:57:30.736Z,98165.57
2018-06-15T01:59:59.943Z,98161.44
2018-06-15T02:02:29.177Z,98165.80
2018-06-15T02:04:58.400Z,98162.02
2018-06-15T02:07:27.641Z,98164.39
2018-06-15T02:09:56.853Z,98164.09
2018-06-15T02:12:26.081Z,98164.17
2018-06-15T02:14:55.316Z,98160.80
2018-06-15T02:17:24.545Z,98154.44
2018-06-15T02:19:53.774Z,98151.33
2018-06-15T02:22:22.993Z,98156.48
2018-06-15T02:24:52.214Z,98153.91
2018-06-15T02:27:21.439Z,98150.57
2018-06-15T02:29:50.669Z,98151.52
2018-06-15T02:32:19.889Z,98151.67
2018-06-15T02:34:49.129Z,98149.20
2018-06-15T02:37:18.364Z,98147.13
2018-06-15T02:39:47.640Z,98147.09
2018-06-15T02:42:16.866Z,98145.31
2018-06-15T02:44:46.090Z,98144.77
2018-06-15T02:47:15.065Z,98151.20
2018-06-15T02:49:44.290Z,98147.50
2018-06-15T02:52:13.499Z,98148.22
2018-06-15T02:54:42.743Z,98146.95
2018-06-15T02:57:11.977Z,98154.14
2018-06-15T02:59:40.972Z,98143.13
2018-06-15T03:02:10.173Z,98143.38
2018-06-15T03:04:39.377Z,98150.04
2018-06-15T03:07:08.581Z,98152.66
2018-06-15T03:09:37.765Z,98146.66
2018-06-15T03:12:06.970Z,98153.02
2018-06-15T03:14:36.145Z,98159.41
2018-06-15T03:17:05.376Z,98158.58
2018-06-15T03:19:34.567Z,98160.68
2018-06-15T03:22:03.770Z,98158.06
2018-06-15T03:24:32.966Z,98157.20
2018-06-15T03:27:02.158Z,98156.80
2018-06-15T03:29:31.361Z,98160.14
2018-06-15T03:32:00.570Z,98158.75
2018-06-15T03:34:29.762Z,98165.88
2018-06-15T03:36:58.979Z,98166.67
2018-06-15T03:39:28.193Z,98165.80
2018-06-15T03:41:57.393Z,98170.91
2018-06-15T03:44:26.591Z,98173.39
2018-06-15T03:46:55.778Z,98178.43
2018-06-15T03:49:25.157Z,98180.50
2018-06-15T03:51:54.407Z,98179.23
2018-06-15T03:54:23.627Z,98175.80
2018-06-15T03:56:52.823Z,98174.38
2018-06-15T03:59:22.071Z,98180.67
2018-06-15T04:01:51.217Z,98179.31
2018-06-15T04:04:20.438Z,98180.15
2018-06-15T04:06:49.657Z,98181.47
2018-06-15T04:09:18.890Z,98184.01
2018-06-15T04:11:48.107Z,98183.39
2018-06-15T04:14:17.343Z,98184.63
2018-06-15T04:16:46.551Z,98188.05
2018-06-15T04:19:15.772Z,98186.33
2018-06-15T04:21:44.993Z,98182.83
2018-06-15T04:24:14.253Z,98176.02
2018-06-15T04:26:43.495Z,98183.58
2018-06-15T04:29:12.475Z,98174.36
2018-06-15T04:31:41.700Z,98178.17
2018-06-15T04:34:10.930Z,98177.64
2018-06-15T04:36:40.144Z,98177.13
2018-06-15T04:39:10.427Z,98176.23
2018-06-15T04:41:39.642Z,98183.39
2018-06-15T04:44:08.861Z,98179.92
2018-06-15T04:46:38.100Z,98183.26
2018-06-15T04:49:07.304Z,98185.84
2018-06-15T04:51:36.525Z,98176.83
2018-06-15T04:54:05.921Z,98180.31
2018-06-15T04:56:35.176Z,98176.88
2018-06-15T04:59:04.393Z,98182.41
2018-06-15T05:01:33.623Z,98186.05
2018-06-15T05:04:02.849Z,98186.89
2018-06-15T05:06:32.077Z,98185.80
2018-06-15T05:09:01.295Z,98188.79
2018-06-15T05:11:30.516Z,98193.92
2018-06-15T05:13:59.732Z,98192.51
2018-06-15T05:16:28.961Z,98194.61
2018-06-15T05:18:58.183Z,98200.02
2018-06-15T05:21:27.412Z,98199.91
2018-06-15T05:23:56.634Z,98201.95
2018-06-15T05:26:25.854Z,98207.84
2018-06-15T05:28:55.061Z,98211.07
2018-06-15T05:31:24.291Z,98201.70
2018-06-15T05:33:54.173Z,98202.27
2018-06-15T05:36:23.428Z,98203.21
2018-06-15T05:38:52.647Z,98200.44
2018-06-15T05:41:21.875Z,98201.27
2018-06-15T05:43:51.084Z,98202.88
2018-06-15T05:46:20.076Z,98200.59
2018-06-15T05:48:49.322Z,98205.42
2018-06-15T05:51:18.549Z,98204.73
2018-06-15T05:53:47.796Z,98198.80
2018-06-15T05:56:17.183Z,98203.14
2018-06-15T05:58:46.434Z,98198.17
2018-06-15T06:01:15.668Z,98202.89
2018-06-15T06:03:44.658Z,98203.71
2018-06-15T06:06:13.896Z,98208.49
2018-06-15T06:08:43.133Z,98207.49
2018-06-15T06:11:12.381Z,98211.11
2018-06-15T06:13:41.628Z,98207.99
2018-06-15T06:16:10.927Z,98209.08
2018-06-15T06:18:40.182Z,98206.52
2018-06-15T06:21:09.567Z,98207.85
2018-06-15T06:23:38.779Z,98209.77
2018-06-15T06:26:08.255Z,98207.55
2018-06-15T06:28:37.708Z,98210.18
2018-06-15T06:31:07.817Z,98208.70
2018-06-15T06:33:37.191Z,98210.63
2018-06-15T06:36:06.582Z,98210.47
2018-06-15T06:38:35.877Z,98218.70
2018-06-15T06:41:04.913Z,98220.50
2018-06-15T06:43:34.108Z,98223.19
2018-06-15T06:46:03.332Z,98219.43
2018-06-15T06:48:32.529Z,98222.66
2018-06-15T06:51:01.895Z,98217.06
2018-06-15T06:53:31.120Z,98220.70
2018-06-15T06:56:00.396Z,98224.10
2018-06-15T06:58:29.620Z,98226.41
2018-06-15T07:00:58.835Z,98235.23
2018-06-15T07:03:28.020Z,98228.99
2018-06-15T07:05:57.228Z,98231.70
2018-06-15T07:08:26.416Z,98241.01
2018-06-15T07:10:55.617Z,98239.06
2018-06-15T07:13:24.796Z,98237.09
2018-06-15T07:15:53.992Z,98240.00
2018-06-15T07:18:23.172Z,98238.66
2018-06-15T07:20:52.369Z,98246.97
2018-06-15T07:23:21.557Z,98252.57
2018-06-15T07:25:50.757Z,98250.14
2018-06-15T07:28:19.991Z,98248.03
2018-06-15T07:30:49.245Z,98252.59
2018-06-15T07:33:18.484Z,98246.73
2018-06-15T07:35:47.714Z,98250.97
2018-06-15T07:38:16.931Z,98244.03
2018-06-15T07:40:46.108Z,98249.87
2018-06-15T07:43:15.348Z,98255.27
2018-06-15T07:45:44.535Z,98244.75
2018-06-15T07:48:13.836Z,98249.84
2018-06-15T07:50:43.087Z,98255.60
2018-06-15T07:53:12.365Z,98250.25
2018-06-15T07:55:41.676Z,98250.03
2018-06-15T07:58:10.878Z,98250.67
2018-06-15T08:00:40.076Z,98252.41
2018-06-15T08:03:09.296Z,98255.75
2018-06-15T08:05:38.480Z,98259.77
2018-06-15T08:08:07.701Z,98261.44
2018-06-15T08:10:36.730Z,98263.08
2018-06-15T08:13:05.929Z,98255.06
2018-06-15T08:15:35.188Z,98257.80
2018-06-15T08:18:04.368Z,98254.34
2018-06-15T08:20:33.559Z,98255.61
2018-06-15T08:23:02.736Z,98258.63
2018-06-15T08:25:31.952Z,98256.37
2018-06-15T08:28:01.132Z,98259.16
2018-06-15T08:30:30.330Z,98258.45
2018-06-15T08:32:59.519Z,98252.34
2018-06-15T08:35:28.709Z,98250.67
2018-06-15T08:37:57.914Z,98247.83
2018-06-15T08:40:27.107Z,98248.03
2018-06-15T08:42:56.271Z,98247.43
2018-06-15T08:45:25.466Z,98240.69
2018-06-15T08:47:54.678Z,98243.94
2018-06-15T08:50:23.886Z,98239.63
2018-06-15T08:52:53.132Z,98241.11
2018-06-15T08:55:22.406Z,98237.68
2018-06-15T08:57:51.582Z,98239.66
2018-06-15T09:00:20.911Z,98244.28
2018-06-15T09:02:50.113Z,98237.20
2018-06-15T09:05:19.347Z,98239.44
2018-06-15T09:07:48.713Z,98237.40
2018-06-15T09:10:18.054Z,98235.75
2018-06-15T09:12:47.120Z,98230.13
2018-06-15T09:15:16.629Z,98233.16
2018-06-15T09:17:45.946Z,98231.59
2018-06-15T09:20:15.278Z,98230.58
2018-06-15T09:22:44.592Z,98223.31
2018-06-15T09:25:13.955Z,98226.57
2018-06-15T09:27:44.020Z,98226.69
2018-06-15T09:30:13.294Z,98223.45
2018-06-15T09:32:42.685Z,98222.30
2018-06-15T09:35:11.935Z,98229.15
2018-06-15T09:37:41.221Z,98228.44
2018-06-15T09:40:10.522Z,98226.58
2018-06-15T09:42:39.747Z,98228.73
2018-06-15T09:45:08.981Z,98217.51
2018-06-15T09:47:38.265Z,98223.59
2018-06-15T09:50:07.567Z,98222.48
2018-06-15T09:52:37.797Z,98224.70
2018-06-15T09:55:06.907Z,98217.48
2018-06-15T09:57:36.225Z,98221.62
2018-06-15T10:00:05.746Z,98223.30
2018-06-15T10:02:35.070Z,98221.06
2018-06-15T10:05:04.385Z,98225.47
2018-06-15T10:07:33.652Z,98224.18
2018-06-15T10:10:02.872Z,98220.00
2018-06-15T10:12:32.116Z,98224.64
2018-06-15T10:15:01.463Z,98217.84
2018-06-15T10:17:30.880Z,98222.70
2018-06-15T10:20:00.389Z,98226.19
2018-06-15T10:22:29.913Z,98223.27
2018-06-15T10:24:59.336Z,98224.88
2018-06-15T10:27:28.804Z,98227.55
2018-06-15T10:29:58.283Z,98230.05
2018-06-15T10:32:27.663Z,98223.41
2018-06-15T10:34:57.116Z,98224.52
2018-06-15T10:37:26.672Z,98226.00
2018-06-15T10:39:56.012Z,98222.44
2018-06-15T10:42:25.253Z,98221.52
2018-06-15T10:44:54.475Z,98222.74
2018-06-15T10:47:23.724Z,98218.58
2018-06-15T10:49:52.990Z,98215.33
2018-06-15T10:52:22.363Z,98215.17
2018-06-15T10:54:51.796Z,98211.22
2018-06-15T10:57:21.133Z,98207.09
2018-06-15T10:59:50.385Z,98209.56
2018-06-15T11:02:19.872Z,98201.75
2018-06-15T11:04:48.943Z,98204.21
2018-06-15T11:07:18.403Z,98200.31
2018-06-15T11:09:47.775Z,98200.26
2018-06-15T11:12:17.310Z,98198.55
2018-06-15T11:14:46.588Z,98194.75
2018-06-15T11:17:15.957Z,98196.47
2018-06-15T11:19:45.276Z,98204.16
2018-06-15T11:22:14.541Z,98197.54
2018-06-15T11:24:43.826Z,98197.88
2018-06-15T11:27:13.119Z,98196.39
2018-06-15T11:29:42.288Z,98198.77
2018-06-15T11:32:11.479Z,98198.48
2018-06-15T11:34:40.685Z,98198.12
2018-06-15T11:37:09.860Z,98197.99
2018-06-15T11:39:39.053Z,98194.36
2018-06-15T11:42:08.242Z,98194.79
2018-06-15T11:44:37.411Z,98196.25
2018-06-15T11:47:06.682Z,98199.89
2018-06-15T11:49:35.857Z,98192.92
2018-06-15T11:52:05.056Z,98194.76
2018-06-15T11:54:34.306Z,98203.20
2018-06-15T11:57:03.277Z,98194.95
2018-06-15T11:59:32.472Z,98201.09
2018-06-15T12:02:01.690Z,98201.42
2018-06-15T12:04:30.910Z,98198.98
2018-06-15T12:07:00.138Z,98203.33
2018-06-15T12:09:29.411Z,98201.14
2018-06-15T12:11:58.636Z,98199.20
2018-06-15T12:14:27.924Z,98209.02
2018-06-15T12:16:57.165Z,98192.34
2018-06-15T12:19:26.385Z,98198.66
2018-06-15T12:21:55.351Z,98202.93
2018-06-15T12:24:24.553Z,98197.63
2018-06-15T12:26:53.793Z,98195.24
2018-06-15T12:29:23.006Z,98200.43
2018-06-15T12:31:52.230Z,98193.64
2018-06-15T12:34:21.475Z,98199.15
2018-06-15T12:36:50.441Z,98199.78
2018-06-15T12:39:19.715Z,98202.69
2018-06-15T12:41:48.881Z,98207.95
2018-06-15T12:44:18.094Z,98207.56
2018-06-15T12:46:47.298Z,98207.05
2018-06-15T12:49:16.589Z,98204.13
2018-06-15T12:51:45.800Z,98207.71
2018-06-15T12:54:15.198Z,98209.84
2018-06-15T12:56:44.506Z,98204.60
2018-06-15T12:59:13.838Z,98204.67
2018-06-15T13:01:43.182Z,98204.29
2018-06-15T13:04:12.507Z,98202.11
2018-06-15T13:06:41.777Z,98199.50
2018-06-15T13:09:12.119Z,98198.61
2018-06-15T13:11:41.539Z,98197.41
2018-06-15T13:14:11.143Z,98196.11
2018-06-15T13:16:40.656Z,98196.24
2018-06-15T13:19:10.255Z,98198.05
2018-06-15T13:21:39.804Z,98191.97
2018-06-15T13:24:08.850Z,98189.70
2018-06-15T13:26:38.384Z,98187.93
2018-06-15T13:29:07.833Z,98190.88
2018-06-15T13:31:37.358Z,98188.17
2018-06-15T13:34:06.594Z,98181.39
2018-06-15T13:36:36.039Z,98177.91
2018-06-15T13:39:10.732Z,98176.42
2018-06-15T13:41:40.049Z,98180.91
2018-06-15T13:44:09.303Z,98179.36
2018-06-15T13:46:38.608Z,98171.73
2018-06-15T13:49:07.895Z,98179.60
2018-06-15T13:51:37.323Z,98175.12
2018-06-15T13:54:06.643Z,98171.66
2018-06-15T13:56:35.983Z,98184.05
2018-06-15T13:59:05.370Z,98175.45
2018-06-15T14:01:34.682Z,98177.91
2018-06-15T14:04:03.918Z,98172.19
2018-06-15T14:06:33.160Z,98171.22
2018-06-15T14:09:02.341Z,98176.35
2018-06-15T14:11:31.596Z,98171.18
2018-06-15T14:14:00.761Z,98169.94
2018-06-15T14:16:29.920Z,98164.41
2018-06-15T14:18:59.077Z,98168.58
2018-06-15T14:21:28.223Z,98164.64
2018-06-15T14:23:57.390Z,98163.58
2018-06-15T14:26:26.584Z,98156.11
2018-06-15T14:28:55.769Z,98155.87
2018-06-15T14:31:24.919Z,98160.19
2018-06-15T14:33:53.859Z,98156.37
2018-06-15T14:36:23.063Z,98159.24
2018-06-15T14:38:52.233Z,98159.41
2018-06-15T14:41:21.386Z,98153.17
2018-06-15T14:43:50.318Z,98157.25
2018-06-15T14:46:19.712Z,98165.75
2018-06-15T14:48:48.865Z,98170.64
2018-06-15T14:51:18.028Z,98168.81
2018-06-15T14:53:47.193Z,98172.20
2018-06-15T14:56:16.364Z,98170.56
2018-06-15T14:58:45.541Z,98171.84
2018-06-15T15:01:14.692Z,98179.27
2018-06-15T15:03:43.890Z,98173.86
2018-06-15T15:06:13.083Z,98178.48
2018-06-15T15:08:42.307Z,98179.37
2018-06-15T15:11:11.504Z,98174.88
2018-06-15T15:13:40.698Z,98173.08
2018-06-15T15:16:09.889Z,98170.31
2018-06-15T15:18:39.067Z,98174.08
2018-06-15T15:21:08.263Z,98176.06
2018-06-15T15:23:37.463Z,98175.91
2018-06-15T15:26:06.660Z,98166.88
2018-06-15T15:28:35.850Z,98174.49
2018-06-15T15:31:05.071Z,98174.33
2018-06-15T15:33:34.264Z,98173.35
2018-06-15T15:36:03.752Z,98173.95
2018-06-15T15:38:32.696Z,98170.45
2018-06-15T15:41:01.896Z,98169.16
2018-06-15T15:43:31.082Z,98169.38
2018-06-15T15:46:00.276Z,98161.26
2018-06-15T15:48:29.455Z,98161.86
2018-06-15T15:50:58.656Z,98160.95
2018-06-15T15:53:27.839Z,98167.08
2018-06-15T15:55:57.051Z,98163.19
2018-06-15T15:58:26.235Z,98160.52
2018-06-15T16:00:55.493Z,98161.93
2018-06-15T16:03:24.663Z,98163.94
2018-06-15T16:05:53.831Z,98154.23
2018-06-15T16:08:22.994Z,98152.45
2018-06-15T16:10:51.923Z,98158.91
2018-06-15T16:13:21.120Z,98150.19
2018-06-15T16:15:50.239Z,98155.19
2018-06-15T16:18:19.423Z,98152.05
2018-06-15T16:20:48.604Z,98151.75
2018-06-15T16:23:17.768Z,98157.53
2018-06-15T16:25:46.935Z,98156.23
2018-06-15T16:28:16.100Z,98156.30
2018-06-15T16:30:45.270Z,98157.06
2018-06-15T16:33:14.448Z,98163.37
2018-06-15T16:35:43.603Z,98159.90
2018-06-15T16:38:12.764Z,98162.45
2018-06-15T16:40:41.924Z,98160.48
2018-06-15T16:43:11.132Z,98161.70
2018-06-15T16:45:40.297Z,98156.80
2018-06-15T16:48:09.440Z,98159.31
2018-06-15T16:50:38.622Z,98161.47
2018-06-15T16:53:07.781Z,98164.98
2018-06-15T16:55:36.952Z,98161.11
2018-06-15T16:58:06.691Z,98158.96
2018-06-15T17:00:35.867Z,98153.62
2018-06-15T17:03:05.549Z,98162.91
2018-06-15T17:05:34.475Z,98161.30
2018-06-15T17:08:03.626Z,98156.45
2018-06-15T17:10:32.868Z,98160.05
2018-06-15T17:13:02.115Z,98163.92
2018-06-15T17:21:34.857Z,98165.94
2018-06-15T17:24:04.269Z,98169.91
2018-06-15T17:26:33.785Z,98170.80
2018-06-15T17:29:03.360Z,98172.62
2018-06-15T17:31:32.550Z,98176.75
2018-06-15T17:34:05.125Z,98173.89
2018-06-15T17:36:47.442Z,98173.44
2018-06-15T17:39:44.725Z,98168.98
2018-06-15T17:42:13.968Z,98173.48
2018-06-15T17:44:43.148Z,98175.48
2018-06-15T17:47:12.306Z,98176.81
2018-06-15T17:49:41.467Z,98178.73
2018-06-15T17:52:10.738Z,98179.44
2018-06-15T17:54:39.930Z,98175.30
2018-06-15T17:57:10.110Z,98176.00
2018-06-15T17:59:39.588Z,98176.41
2018-06-15T18:02:09.045Z,98175.97
2018-06-15T18:04:38.356Z,98178.00
2018-06-15T18:07:07.714Z,98176.03
2018-06-15T18:09:37.061Z,98176.28
2018-06-15T18:12:06.376Z,98176.38
2018-06-15T18:14:35.708Z,98181.00
2018-06-15T18:17:05.077Z,98179.23
2018-06-15T18:19:34.374Z,98176.95
2018-06-15T18:22:03.637Z,98180.72
2018-06-15T18:24:33.062Z,98179.05
2018-06-15T18:27:02.457Z,98171.48
2018-06-15T18:29:31.892Z,98177.80
2018-06-15T18:32:01.451Z,98178.61
2018-06-15T18:34:30.836Z,98177.73
2018-06-15T18:36:59.920Z,98179.42
2018-06-15T18:39:29.295Z,98183.35
2018-06-15T18:41:58.860Z,98186.17
2018-06-15T18:44:28.199Z,98187.92
2018-06-15T18:46:57.547Z,98185.98
2018-06-15T18:49:26.923Z,98184.81
2018-06-15T18:51:56.232Z,98178.88
2018-06-15T18:54:25.690Z,98184.25
2018-06-15T18:56:55.030Z,98180.20
2018-06-15T18:59:24.403Z,98182.05
2018-06-15T19:01:53.750Z,98184.47
2018-06-15T19:04:23.158Z,98184.63
2018-06-15T19:06:52.555Z,98189.25
2018-06-15T19:09:21.686Z,98176.33
2018-06-15T19:11:51.126Z,98178.29
2018-06-15T19:14:20.522Z,98176.17
2018-06-15T19:16:49.971Z,98183.52
2018-06-15T19:19:19.122Z,98176.15
2018-06-15T19:21:48.531Z,98178.87
2018-06-15T19:24:17.981Z,98173.84
2018-06-15T19:26:47.380Z,98178.95
2018-06-15T19:29:16.534Z,98177.92
2018-06-15T19:31:45.949Z,98178.23
2018-06-15T19:34:15.402Z,98188.20
2018-06-15T19:36:44.779Z,98189.67
2018-06-15T19:39:13.997Z,98183.66
2018-06-15T19:41:43.203Z,98191.81
2018-06-15T19:44:12.401Z,98184.95
2018-06-15T19:46:41.629Z,98192.34
2018-06-15T19:49:10.858Z,98197.64
2018-06-15T19:51:39.820Z,98197.73
2018-06-15T19:54:09.084Z,98195.55
2018-06-15T19:56:38.317Z,98196.86
2018-06-15T19:59:07.554Z,98195.39
2018-06-15T20:01:36.859Z,98199.41
2018-06-15T20:04:06.086Z,98200.23
2018-06-15T20:06:35.318Z,98201.07
2018-06-15T20:09:07.207Z,98194.89
2018-06-15T20:11:36.664Z,98199.17
2018-06-15T20:14:05.879Z,98200.91
2018-06-15T20:16:35.083Z,98198.52
2018-06-15T20:19:04.321Z,98200.17
2018-06-15T20:21:33.515Z,98202.35
2018-06-15T20:24:02.478Z,98205.98
2018-06-15T20:26:31.679Z,98205.09
2018-06-15T20:29:00.904Z,98203.05
2018-06-15T20:31:30.059Z,98202.10
2018-06-15T20:33:59.274Z,98206.02
2018-06-15T20:36:28.245Z,98211.14
2018-06-15T20:38:57.437Z,98208.22
2018-06-15T20:41:26.729Z,98208.33
2018-06-15T20:43:55.928Z,98208.85
2018-06-15T20:46:25.117Z,98214.94
2018-06-15T20:48:54.329Z,98209.28
2018-06-15T20:51:23.558Z,98208.32
2018-06-15T20:53:52.779Z,98205.94
2018-06-15T20:56:22.057Z,98211.03
2018-06-15T20:58:51.389Z,98205.30
2018-06-15T21:01:20.633Z,98206.61
2018-06-15T21:03:50.187Z,98204.33
2018-06-15T21:06:19.123Z,98206.81
2018-06-15T21:08:48.501Z,98209.91
2018-06-15T21:11:17.678Z,98211.38
2018-06-15T21:13:46.925Z,98209.06
2018-06-15T21:16:16.091Z,98209.91
2018-06-15T21:18:45.305Z,98209.81
2018-06-15T21:21:14.490Z,98209.39
2018-06-15T21:23:43.847Z,98207.79
2018-06-15T21:26:13.111Z,98212.55
2018-06-15T21:28:42.385Z,98207.95
2018-06-15T21:31:11.654Z,98206.35
2018-06-15T21:33:40.901Z,98208.41
2018-06-15T21:36:10.096Z,98210.84
2018-06-15T21:38:39.297Z,98209.66
2018-06-15T21:41:08.537Z,98203.27
2018-06-15T21:43:37.512Z,98210.98
2018-06-15T21:46:06.895Z,98204.10
2018-06-15T21:48:36.229Z,98206.64
2018-06-15T21:51:05.434Z,98203.25
2018-06-15T21:53:34.624Z,98204.00
2018-06-15T21:56:03.567Z,98208.98
2018-06-15T21:58:32.799Z,98210.80
2018-06-15T22:01:02.028Z,98208.38
2018-06-15T22:03:31.235Z,98209.87
2018-06-15T22:06:00.488Z,98206.99
2018-06-15T22:08:29.710Z,98204.58
2018-06-15T22:10:59.007Z,98207.21
2018-06-15T22:13:28.258Z,98207.34
2018-06-15T22:15:57.557Z,98204.16
2018-06-15T22:18:26.763Z,98206.96
2018-06-15T22:20:56.059Z,98208.95
2018-06-15T22:23:25.677Z,98204.25
2018-06-15T22:25:54.990Z,98208.05
2018-06-15T22:28:24.344Z,98202.89
2018-06-15T22:30:53.717Z,98210.17
2018-06-15T22:33:23.054Z,98209.91
2018-06-15T22:35:52.388Z,98212.02
2018-06-15T22:38:22.028Z,98211.50
2018-06-15T22:40:51.300Z,98216.98
2018-06-15T22:43:20.857Z,98213.11
2018-06-15T22:45:50.346Z,98207.63
2018-06-15T22:48:19.907Z,98210.67
2018-06-15T22:50:49.240Z,98211.95
2018-06-15T22:53:18.261Z,98212.80
2018-06-15T22:55:47.507Z,98217.00
2018-06-15T22:58:17.092Z,98215.27
2018-06-15T23:00:46.432Z,98209.41
2018-06-15T23:03:16.021Z,98217.05
2018-06-15T23:05:45.506Z,98213.61
2018-06-15T23:08:14.848Z,98217.12
2018-06-15T23:10:44.209Z,98216.78
2018-06-15T23:13:13.899Z,98209.52
2018-06-15T23:15:43.446Z,98208.17
2018-06-15T23:18:12.861Z,98204.34
2018-06-15T23:20:42.178Z,98199.30
2018-06-15T23:23:11.676Z,98203.07
2018-06-15T23:25:40.958Z,98197.97
2018-06-15T23:28:10.512Z,98197.21
2018-06-15T23:30:39.904Z,98194.16
2018-06-15T23:33:09.488Z,98191.15
2018-06-15T23:35:38.674Z,98196.25
2018-06-15T23:38:08.066Z,98192.50
2018-06-15T23:40:37.532Z,98192.56
2018-06-15T23:43:06.935Z,98190.84
2018-06-15T23:45:36.295Z,98188.35
2018-06-15T23:48:05.646Z,98186.69
2018-06-15T23:50:35.019Z,98192.69
2018-06-15T23:53:04.358Z,98188.08
2018-06-15T23:55:33.851Z,98184.70
2018-06-15T23:58:03.163Z,98189.44
